createdAt,value
2018-09-30T00:00:53.286Z,94827.65
2018-09-30T00:15:50.998Z,94830.86
2018-09-30T00:30:52.999Z,94839.17
2018-09-30T00:45:50.372Z,94845.72
2018-09-30T01:00:50.381Z,94860.74
2018-09-30T01:15:52.401Z,94869.20
2018-09-30T01:30:50.295Z,94866.74
2018-09-30T01:45:50.821Z,94872.69
2018-09-30T02:00:51.300Z,94879.36
2018-09-30T02:15:52.589Z,94879.75
2018-09-30T02:30:52.599Z,94871.91
2018-09-30T02:45:50.969Z,94878.20
2018-09-30T03:00:50.428Z,94888.13
2018-09-30T03:15:50.925Z,94897.86
2018-09-30T03:30:57.411Z,94900.06
2018-09-30T03:45:52.183Z,94915.53
2018-09-30T04:00:50.127Z,94924.91
2018-09-30T04:15:51.156Z,94929.02
2018-09-30T04:30:51.053Z,94941.72
2018-09-30T04:45:50.438Z,94956.55
2018-09-30T05:00:50.640Z,94959.84
2018-09-30T05:15:50.702Z,94962.63
2018-09-30T05:30:50.523Z,94964.33
2018-09-30T05:45:50.937Z,94965.87
2018-09-30T06:00:52.925Z,94979.89
2018-09-30T06:30:50.969Z,94982.45
2018-09-30T06:45:53.274Z,94995.73
2018-09-30T07:00:51.227Z,94997.95
2018-09-30T07:15:51.146Z,95005.63
2018-09-30T07:30:50.594Z,95013.66
2018-09-30T07:45:50.409Z,95031.01
2018-09-30T08:00:50.676Z,95031.94
2018-09-30T08:15:50.359Z,95042.21
2018-09-30T08:30:51.237Z,95025.97
2018-09-30T08:45:50.933Z,95036.37
2018-09-30T09:00:50.986Z,95024.45
2018-09-30T09:15:50.687Z,95011.03
2018-09-30T09:30:50.790Z,95000.52
2018-09-30T09:45:51.181Z,94991.22
2018-09-30T10:00:53.187Z,94975.57
2018-09-30T10:15:50.894Z,94981.49
2018-09-30T10:30:52.995Z,94977.86
2018-09-30T10:45:51.408Z,94970.78
2018-09-30T11:00:53.327Z,94950.50
2018-09-30T11:15:52.989Z,94943.42
2018-09-30T11:30:50.464Z,94929.61
2018-09-30T11:45:50.350Z,94927.14
2018-09-30T12:00:50.654Z,94912.55
2018-09-30T12:15:50.527Z,94917.15
2018-09-30T12:30:50.462Z,94888.26
2018-09-30T12:45:51.130Z,94897.36
2018-09-30T13:00:50.869Z,94867.39
2018-09-30T13:15:50.693Z,94851.15
2018-09-30T13:30:50.962Z,94836.64
2018-09-30T13:45:51.192Z,94825.38
2018-09-30T14:00:51.290Z,94830.42
2018-09-30T14:15:50.893Z,94830.89
2018-09-30T14:30:50.542Z,94830.95
2018-09-30T14:45:51.290Z,94828.91
2018-09-30T15:00:53.047Z,94827.36
2018-09-30T15:15:51.159Z,94824.84
2018-09-30T15:30:59.159Z,94825.14
2018-09-30T15:45:50.788Z,94820.52
2018-09-30T16:00:52.417Z,94817.48
2018-09-30T16:15:52.390Z,94805.16
2018-09-30T16:30:50.485Z,94816.48
2018-09-30T16:45:53.684Z,94842.58
2018-09-30T17:00:51.191Z,94825.41
2018-09-30T17:15:50.840Z,94833.43
2018-09-30T17:30:50.589Z,94833.00
2018-09-30T17:45:51.174Z,94839.25
2018-09-30T18:00:51.495Z,94844.97
2018-09-30T18:15:51.168Z,94859.88
2018-09-30T18:30:51.288Z,94838.33
2018-09-30T18:45:51.841Z,94846.94
2018-09-30T19:00:53.372Z,94826.77
2018-09-30T19:15:53.325Z,94811.82
2018-09-30T19:30:51.340Z,94815.52
2018-09-30T19:45:50.579Z,94801.41
2018-09-30T20:00:50.603Z,94782.81
2018-09-30T20:15:50.566Z,94779.14
2018-09-30T20:30:52.622Z,94761.00
2018-09-30T20:45:50.974Z,94749.96
2018-09-30T21:00:51.687Z,94747.16
2018-09-30T21:15:50.843Z,94726.48
2018-09-30T21:30:51.547Z,94706.07
2018-09-30T21:45:51.167Z,94685.05
2018-09-30T22:00:57.873Z,94667.45
2018-09-30T22:15:50.623Z,94656.38
2018-09-30T22:30:51.226Z,94650.57
2018-09-30T22:45:52.362Z,94630.59
2018-09-30T23:00:50.438Z,94634.52
2018-09-30T23:15:51.578Z,94628.55
2018-09-30T23:30:51.304Z,94612.27
2018-09-30T23:45:50.570Z,94613.58
